Middle Bass, Ohio
Current Conditions -  °F | °C
As of 5:33 PM on Monday 20 Oct 2014 (Local Time) from KPCW Reporting Station
Overcast Overcast  
Wind Chill: 55°   Ceiling: 1600
Heat Index: 55°   Visibility: 10mi
Dew Point: 52°   Wind: 8mph
Humidity: 88%   Direction: 260°W
Pressure: 29.82"   Gusts: NA
Location:  41.68°N, 82.81°W
Report Text: KPCW 202133Z AUTO 26007KT 10SM OVC016 13/11 A2982 RMK AO2 RAB12E33 $
Loading
Personal Weather Stations






























Interactive Weather Map
Tropical Storm Tracking
New forecast layout! Learn more

10-Day Weather Forecast

Advertisements
Track Severe Weather on mobile